Reading, MN (56165)

10:13 AM CST on December 08, 2016 (GMT -0600)
2317 BioTech Dr | | Change Station

Elev 1572 ft 43.64 °N, 95.59 °W | Updated 3 minutes ago

Partly Cloudy
Partly Cloudy
12.9 °F
Feels Like -6 °F
N
21.2
Wind Variable Wind from WNW
Gusts 22.6 mph

Today
High -- | Low -- °F
--% Chance of Precip.
Yesterday
High -- | Low -- °F
Precip. -- in
Pressure 30.59 in
Visibility 10.0 miles
Clouds Few 1600 ft
Windchill -6 °F
Dew Point -3 °F
Humidity 48%
Rainfall 0.00 in
Snow Depth Not available.
7:44 AM 4:45 PM
Waxing Gibbous, 64% visible
METAR KOTG 081556Z AUTO 30019KT 10SM FEW016 M11/M14 A3047 RMK AO2 PK WND 30026/1525 SNB35E45 SLP357 P0000 T11111139 FZRANO
Pressure 30.59 in
Visibility 10.0 miles
Clouds Few 1600 ft
Windchill -6 °F
Dew Point -3 °F
Humidity 48%
Rainfall 0.00 in
Snow Depth Not available.
7:44 AM 4:45 PM
Waxing Gibbous, 64% visible
METAR KOTG 081556Z AUTO 30019KT 10SM FEW016 M11/M14 A3047 RMK AO2 PK WND 30026/1525 SNB35E45 SLP357 P0000 T11111139 FZRANO

10-Day Weather Forecast

Almanac

Astronomy

Dec. 08, 2016 Rise Set
Actual Time
Civil Twilight
Nautical Twilight
Astronomical Twilight
Moon
Length of Visible Light
Length of Day
Tomorrow will be .
, % of the Moon is Illuminated

Today's Extremes

State Highs State Lows

Community

WunderPhotos

Upload Photos

1,956,274 photos uploaded!

WunderBlog® & News

Nearby

Air Quality

  Air Quality AQ Index Pollutant
Not available.

Snow Depth

Station Depth Elevation

Earthquake Activity

City Distance Mag. Time & Date
Minimum magnitude displayed is 2.5.

Coastal Water Temperatures

Place Temperature

Stations

Nearby Weather Stations

Station Location Temp. Windchill Dew Point Humidity Wind Precip. Elev Updated Type
                   

Watches & Warnings

There are currently no watches in effect.